Time;durP1;ratioP1;P1;durP2;ratioP2;P2;SDS_P1;SDS_P2;PMS_P1;PMS_P2;Temp;Humidity;BMP_temperature;BMP_pressure;BME280_temperature;BME280_humidity;BME280_pressure;Samples;Min_cycle;Max_cycle;Signal;HPM_P1;HPM_P2
2023/10/25 00:02:21;;;;;;;4.97;4.30;;;;;;;1.02;100.00;101914.94;5051741;28;20064;-70
2023/10/25 00:04:46;;;;;;;4.23;3.83;;;;;;;0.85;100.00;101892.97;5052407;28;20040;-70
2023/10/25 00:07:12;;;;;;;5.87;5.00;;;;;;;0.67;100.00;101872.88;5052825;28;20396;-71
2023/10/25 00:09:37;;;;;;;7.90;4.03;;;;;;;-0.09;100.00;101767.22;5051809;28;20124;-70
2023/10/25 00:12:03;;;;;;;7.93;4.67;;;;;;;0.52;100.00;101873.56;5051534;28;20545;-71
2023/10/25 00:14:29;;;;;;;5.73;4.37;;;;;;;0.63;100.00;101907.19;5050225;28;20086;-71
2023/10/25 00:16:54;;;;;;;5.93;3.20;;;;;;;0.33;100.00;101880.59;5052222;28;20120;-70
2023/10/25 00:19:20;;;;;;;6.33;3.70;;;;;;;0.41;100.00;101902.06;5050674;28;20057;-69
2023/10/25 00:21:45;;;;;;;7.27;4.27;;;;;;;0.12;100.00;101858.84;5051709;28;20127;-70
2023/10/25 00:24:11;;;;;;;6.93;3.77;;;;;;;0.47;100.00;101909.63;5051104;28;20041;-70
2023/10/25 00:26:37;;;;;;;3.63;3.17;;;;;;;0.50;100.00;101914.72;5051425;28;20094;-69
2023/10/25 00:29:03;;;;;;;4.77;3.07;;;;;;;0.22;100.00;101862.72;5050821;28;20029;-69
2023/10/25 00:31:28;;;;;;;6.17;3.37;;;;;;;0.44;100.00;101894.06;5051250;28;20049;-68
2023/10/25 00:33:55;;;;;;;9.83;3.97;;;;;;;0.55;100.00;101891.78;5051854;28;20136;-70
2023/10/25 00:36:21;;;;;;;5.60;3.70;;;;;;;0.39;100.00;101860.19;5055219;28;20048;-70
2023/10/25 00:38:46;;;;;;;5.03;3.60;;;;;;;0.41;100.00;101865.38;5055440;28;20271;-70
2023/10/25 00:41:12;;;;;;;8.63;3.33;;;;;;;0.60;100.00;101881.94;5054169;28;20040;-69
2023/10/25 00:43:38;;;;;;;6.10;3.43;;;;;;;0.58;100.00;101875.94;5053979;28;20037;-69
2023/10/25 00:46:12;;;;;;;6.50;3.80;;;;;;;0.66;100.00;101896.53;5053764;28;20479;-69
2023/10/25 00:48:40;;;;;;;6.10;3.00;;;;;;;0.39;100.00;101854.09;5054795;28;20083;-71
2023/10/25 00:51:08;;;;;;;6.35;3.63;;;;;;;0.45;100.00;101883.50;5055044;28;20270;-71
2023/10/25 00:53:37;;;;;;;6.65;3.55;;;;;;;0.45;100.00;101893.13;5055658;28;20029;-71
2023/10/25 00:56:05;;;;;;;5.17;3.40;;;;;;;0.43;100.00;101892.34;5054368;28;20570;-69
2023/10/25 00:58:32;;;;;;;9.27;3.10;;;;;;;0.47;100.00;101881.66;5054647;28;20283;-70
2023/10/25 01:00:58;;;;;;;7.60;4.17;;;;;;;0.48;100.00;101861.53;5055108;28;20325;-71
2023/10/25 01:03:24;;;;;;;5.93;3.73;;;;;;;0.50;100.00;101857.06;5053425;28;20286;-69
2023/10/25 01:05:49;;;;;;;5.20;3.67;;;;;;;0.47;100.00;101844.09;5054650;28;20256;-69
2023/10/25 01:08:22;;;;;;;8.83;3.33;;;;;;;0.56;100.00;101867.25;5053788;28;20072;-70
2023/10/25 01:10:51;;;;;;;8.17;4.00;;;;;;;0.63;100.00;101884.44;5054524;28;20091;-70
2023/10/25 01:13:21;;;;;;;7.30;3.10;;;;;;;0.55;100.00;101874.28;5053831;28;20354;-72
2023/10/25 01:15:47;;;;;;;7.47;3.47;;;;;;;0.55;100.00;101878.66;5053819;28;20284;-70
2023/10/25 01:18:13;;;;;;;4.10;2.83;;;;;;;0.56;100.00;101896.94;5054355;28;20313;-70
2023/10/25 01:20:39;;;;;;;7.17;3.50;;;;;;;0.45;100.00;101885.28;5055962;28;20083;-70
2023/10/25 01:23:05;;;;;;;6.40;3.20;;;;;;;0.51;100.00;101912.03;5054733;28;20751;-69
2023/10/25 01:25:30;;;;;;;6.27;4.27;;;;;;;0.47;100.00;101902.63;5054384;28;20516;-69
2023/10/25 01:27:56;;;;;;;4.60;2.93;;;;;;;0.45;100.00;101901.00;5054520;28;20074;-71
2023/10/25 01:30:22;;;;;;;8.17;3.70;;;;;;;0.27;100.00;101881.69;5054113;28;20135;-69
2023/10/25 01:32:47;;;;;;;6.90;3.70;;;;;;;0.29;100.00;101903.47;5052611;28;20123;-70
2023/10/25 01:35:13;;;;;;;9.43;4.43;;;;;;;0.01;100.00;101856.72;5053458;28;20571;-70
2023/10/25 01:37:39;;;;;;;7.90;3.63;;;;;;;0.32;100.00;101903.34;5053698;28;20104;-70
2023/10/25 01:40:06;;;;;;;5.00;3.37;;;;;;;0.30;100.00;101884.22;5056652;28;20511;-69
2023/10/25 01:42:31;;;;;;;6.60;3.53;;;;;;;0.53;100.00;101911.97;5054736;28;20264;-69
2023/10/25 01:44:57;;;;;;;11.50;4.60;;;;;;;0.55;100.00;101878.66;5047506;28;20284;-69
2023/10/25 01:47:23;;;;;;;5.90;3.53;;;;;;;0.73;100.00;101909.28;5045707;28;20055;-70
2023/10/25 01:49:48;;;;;;;7.80;3.67;;;;;;;0.35;100.00;101844.69;5029654;28;20041;-71
2023/10/25 01:52:14;;;;;;;6.93;3.67;;;;;;;0.61;100.00;101902.00;5041292;28;20071;-70
2023/10/25 01:54:40;;;;;;;6.60;3.70;;;;;;;0.59;100.00;101917.81;5046176;28;20044;-71
2023/10/25 01:57:06;;;;;;;4.27;3.20;;;;;;;0.52;100.00;101898.00;5039168;28;20036;-70
2023/10/25 01:59:32;;;;;;;9.93;3.43;;;;;;;0.59;100.00;101895.97;5040006;28;20828;-70
2023/10/25 02:01:57;;;;;;;4.70;3.23;;;;;;;0.58;100.00;101905.63;5040781;28;20279;-70
2023/10/25 02:04:23;;;;;;;5.07;3.37;;;;;;;0.43;100.00;101893.19;5048944;28;20520;-70
2023/10/25 02:06:51;;;;;;;6.33;3.70;;;;;;;-0.32;100.00;101773.47;5039946;28;20116;-69
2023/10/25 02:09:18;;;;;;;8.68;4.57;;;;;;;0.63;100.00;101913.25;5043270;28;20436;-71
2023/10/25 02:11:44;;;;;;;6.83;3.30;;;;;;;0.52;100.00;101884.06;5038892;28;20408;-69
2023/10/25 02:14:10;;;;;;;6.33;4.00;;;;;;;0.63;100.00;101902.78;5038301;28;20272;-69
2023/10/25 02:16:36;;;;;;;8.10;3.40;;;;;;;0.71;100.00;101920.78;5043580;28;20045;-70
2023/10/25 02:19:01;;;;;;;10.13;4.93;;;;;;;0.49;100.00;101884.19;5045959;28;20567;-69
2023/10/25 02:21:27;;;;;;;7.00;3.50;;;;;;;0.63;100.00;101907.19;5048067;28;20036;-70
2023/10/25 02:23:55;;;;;;;12.57;3.90;;;;;;;0.65;100.00;101903.56;5036780;28;20041;-70
2023/10/25 02:26:21;;;;;;;5.78;3.20;;;;;;;0.73;100.00;101919.78;5033069;28;20449;-70
2023/10/25 02:28:46;;;;;;;5.63;3.03;;;;;;;0.84;100.00;101927.13;5039275;28;20879;-69
2023/10/25 02:31:12;;;;;;;17.97;5.30;;;;;;;0.91;100.00;101915.44;5039757;28;20059;-70
2023/10/25 02:33:39;;;;;;;8.17;5.00;;;;;;;1.01;100.00;101913.22;5059624;28;20034;-71
2023/10/25 02:36:04;;;;;;;6.37;2.87;;;;;;;1.04;100.00;101906.06;5060687;28;20045;-71
2023/10/25 02:38:30;;;;;;;8.00;3.53;;;;;;;1.05;100.00;101901.66;5067012;28;20272;-70
2023/10/25 02:40:56;;;;;;;5.50;3.13;;;;;;;1.07;100.00;101908.53;5055568;28;20037;-69
2023/10/25 02:43:21;;;;;;;5.70;3.10;;;;;;;1.13;100.00;101917.88;5034993;28;20418;-71
2023/10/25 02:45:47;;;;;;;3.87;2.80;;;;;;;0.95;100.00;101895.16;5065560;28;20037;-69
2023/10/25 02:48:13;;;;;;;7.23;2.83;;;;;;;1.11;100.00;101922.34;5043090;28;20098;-70
2023/10/25 02:50:39;;;;;;;5.97;3.23;;;;;;;1.03;100.00;101914.84;5036567;28;20472;-71
2023/10/25 02:53:05;;;;;;;6.90;3.00;;;;;;;1.07;100.00;101918.19;5039859;28;20774;-71
2023/10/25 02:55:33;;;;;;;3.60;2.77;;;;;;;0.97;100.00;101901.19;5042626;28;20828;-70
2023/10/25 02:57:58;;;;;;;8.63;3.47;;;;;;;1.06;100.00;101924.34;5045544;28;20037;-69
2023/10/25 03:00:24;;;;;;;4.03;3.07;;;;;;;1.01;100.00;101914.09;5035175;28;20362;-69
2023/10/25 03:02:49;;;;;;;8.37;3.10;;;;;;;1.13;100.00;101928.38;5041928;28;20047;-69
2023/10/25 03:05:15;;;;;;;6.80;3.97;;;;;;;0.93;100.00;101888.22;5041362;28;20041;-69
2023/10/25 03:07:41;;;;;;;7.43;3.17;;;;;;;1.11;100.00;101924.97;5039827;28;20041;-70
2023/10/25 03:10:06;;;;;;;5.20;3.60;;;;;;;1.08;100.00;101919.88;5046985;28;20568;-72
2023/10/25 03:12:32;;;;;;;6.07;3.53;;;;;;;1.10;100.00;101928.53;5042100;28;20036;-71
2023/10/25 03:14:59;;;;;;;5.73;2.70;;;;;;;1.11;100.00;101917.09;5048320;28;20052;-69
2023/10/25 03:17:27;;;;;;;6.53;3.13;;;;;;;1.12;100.00;101917.03;5049239;28;20366;-72
2023/10/25 03:19:53;;;;;;;7.57;3.63;;;;;;;1.20;100.00;101924.56;5051829;28;20299;-72
2023/10/25 03:22:18;;;;;;;6.30;4.40;;;;;;;1.09;100.00;101913.72;5047595;28;20388;-72
2023/10/25 03:24:44;;;;;;;4.70;3.00;;;;;;;1.04;100.00;101913.09;5044743;28;20041;-69
2023/10/25 03:27:09;;;;;;;4.53;3.60;;;;;;;0.97;100.00;101903.81;5035719;28;20528;-69
2023/10/25 03:29:36;;;;;;;6.70;3.90;;;;;;;0.97;100.00;101902.03;5037383;28;20041;-71
2023/10/25 03:32:03;;;;;;;6.33;4.40;;;;;;;1.20;100.00;101935.06;5030738;28;20052;-68
2023/10/25 03:34:29;;;;;;;4.00;3.50;;;;;;;1.20;100.00;101930.66;5031314;28;20280;-71
2023/10/25 03:36:55;;;;;;;5.13;3.70;;;;;;;1.02;100.00;101914.94;5032000;28;20310;-70
2023/10/25 03:39:21;;;;;;;5.67;4.50;;;;;;;1.13;100.00;101936.25;5031340;28;20288;-68
2023/10/25 03:41:46;;;;;;;8.40;4.67;;;;;;;1.22;100.00;101939.31;5032365;28;20040;-71
2023/10/25 03:44:13;;;;;;;7.43;4.87;;;;;;;1.17;100.00;101935.19;5031966;28;20124;-70
2023/10/25 03:46:38;;;;;;;5.53;4.87;;;;;;;1.08;100.00;101927.75;5032730;28;20038;-72
2023/10/25 03:49:04;;;;;;;7.27;5.23;;;;;;;1.08;100.00;101935.63;5035538;28;20271;-71
2023/10/25 03:51:30;;;;;;;6.23;4.30;;;;;;;1.06;100.00;101933.06;5037722;28;20044;-69
2023/10/25 03:53:56;;;;;;;5.27;4.33;;;;;;;1.11;100.00;101936.31;5053106;28;20156;-69
2023/10/25 03:56:22;;;;;;;3.43;3.13;;;;;;;1.11;100.00;101936.31;5052680;28;20782;-73
2023/10/25 03:58:47;;;;;;;7.03;4.40;;;;;;;1.08;100.00;101925.97;5052335;28;20045;-71
2023/10/25 04:01:13;;;;;;;6.97;3.60;;;;;;;1.01;100.00;101911.47;5052355;28;20674;-71
2023/10/25 04:03:39;;;;;;;7.40;3.20;;;;;;;1.14;100.00;101935.31;5052042;28;20082;-72
2023/10/25 04:06:06;;;;;;;3.97;3.47;;;;;;;1.10;100.00;101920.66;5052439;28;20259;-72
2023/10/25 04:08:32;;;;;;;5.97;4.40;;;;;;;1.25;100.00;101933.06;5054810;28;20072;-72
2023/10/25 04:10:58;;;;;;;6.23;3.63;;;;;;;1.25;100.00;101938.31;5057570;28;20310;-72
2023/10/25 04:13:24;;;;;;;3.97;3.00;;;;;;;1.13;100.00;101912.63;5059152;28;20592;-70
2023/10/25 04:15:57;;;;;;;5.63;3.90;;;;;;;1.18;100.00;101924.63;5055363;28;20298;-73
2023/10/25 04:18:25;;;;;;;5.37;4.03;;;;;;;1.14;100.00;101930.06;5056660;28;20056;-75
2023/10/25 04:20:52;;;;;;;5.13;4.00;;;;;;;1.08;100.00;101925.13;5055983;28;20329;-73
2023/10/25 04:23:18;;;;;;;7.27;3.77;;;;;;;1.05;100.00;101936.63;5037713;28;20299;-68
2023/10/25 04:25:44;;;;;;;6.37;4.53;;;;;;;1.12;100.00;101940.66;5056242;28;20286;-71
2023/10/25 04:28:10;;;;;;;3.63;3.20;;;;;;;1.09;100.00;101942.56;5055911;28;20279;-73
2023/10/25 04:30:36;;;;;;;7.37;4.83;;;;;;;0.96;100.00;101929.19;5055503;28;20286;-73
2023/10/25 04:33:02;;;;;;;5.13;3.40;;;;;;;0.87;100.00;101911.28;5054508;28;20132;-71
2023/10/25 04:35:29;;;;;;;6.57;3.70;;;;;;;1.02;100.00;101926.28;5053432;28;20052;-72
2023/10/25 04:37:55;;;;;;;6.37;3.60;;;;;;;1.21;100.00;101947.25;5054075;28;20793;-73
2023/10/25 04:40:24;;;;;;;6.40;3.30;;;;;;;1.24;100.00;101947.94;5055236;28;20319;-72
2023/10/25 04:42:56;;;;;;;;;;;;;;;1.31;100.00;101953.75;5054514;28;20298;-70
2023/10/25 04:45:22;;;;;;;7.93;3.50;;;;;;;1.14;100.00;101936.16;5053850;28;19917;-73
2023/10/25 04:47:50;;;;;;;7.63;3.73;;;;;;;1.23;100.00;101959.38;5054922;28;20272;-70
2023/10/25 04:50:22;;;;;;;3.83;2.70;;;;;;;0.99;100.00;101942.16;5055278;28;20048;-72
2023/10/25 04:52:48;;;;;;;4.20;3.00;;;;;;;1.01;100.00;101953.44;5054169;28;20037;-73
2023/10/25 04:55:14;;;;;;;6.43;3.00;;;;;;;0.94;100.00;101938.91;5054686;28;20295;-73
2023/10/25 04:57:40;;;;;;;6.30;3.13;;;;;;;0.87;100.00;101927.88;5055729;28;20271;-70
2023/10/25 05:00:09;;;;;;;7.00;3.03;;;;;;;0.97;100.00;101970.25;5054028;28;20040;-72
2023/10/25 05:02:39;;;;;;;3.87;2.90;;;;;;;0.82;100.00;101966.53;5038265;28;20135;-70
2023/10/25 05:05:05;;;;;;;;;;;;;;;0.80;100.00;101960.53;5056286;28;20766;-73
2023/10/25 05:07:31;;;;;;;5.53;3.70;;;;;;;0.65;100.00;101950.75;5055738;28;19998;-70
2023/10/25 05:09:57;;;;;;;6.17;3.77;;;;;;;0.04;100.00;101859.19;5055765;28;20837;-69
2023/10/25 05:12:32;;;;;;;5.60;2.90;;;;;;;0.67;100.00;101954.16;5052895;28;20064;-69
2023/10/25 05:14:58;;;;;;;3.07;2.77;;;;;;;0.68;100.00;101955.84;5042481;28;20107;-69
2023/10/25 05:17:24;;;;;;;5.10;3.27;;;;;;;0.49;100.00;101934.00;5042100;28;20276;-69
2023/10/25 05:19:50;;;;;;;4.53;2.93;;;;;;;0.63;100.00;101949.97;5042321;28;20037;-68
2023/10/25 05:22:18;;;;;;;5.87;3.80;;;;;;;0.78;100.00;101975.47;5043893;28;20033;-67
2023/10/25 05:24:44;;;;;;;8.05;3.13;;;;;;;0.68;100.00;101947.97;5062176;28;20048;-72
2023/10/25 05:27:10;;;;;;;4.67;3.43;;;;;;;0.68;100.00;101944.50;5059902;28;20547;-72
2023/10/25 05:29:36;;;;;;;3.50;3.00;;;;;;;0.86;100.00;101965.47;5062751;28;20040;-71
2023/10/25 05:32:05;;;;;;;4.40;3.47;;;;;;;0.82;100.00;101966.53;5056638;28;20763;-69
2023/10/25 05:34:32;;;;;;;6.83;4.13;;;;;;;0.86;100.00;101975.97;5036706;28;20427;-73
2023/10/25 05:36:58;;;;;;;6.07;3.53;;;;;;;0.71;100.00;101947.84;5054048;28;20295;-70
2023/10/25 05:39:24;;;;;;;6.07;4.63;;;;;;;0.88;100.00;101978.53;5052743;28;20279;-71
2023/10/25 05:41:51;;;;;;;5.40;3.30;;;;;;;0.86;100.00;101983.84;5053015;28;20080;-70
2023/10/25 05:44:17;;;;;;;6.97;3.40;;;;;;;0.83;100.00;101970.88;5053512;28;20039;-69
2023/10/25 05:46:43;;;;;;;7.30;4.47;;;;;;;0.68;100.00;101929.63;5054534;28;20276;-66
2023/10/25 05:49:09;;;;;;;10.07;4.00;;;;;;;0.99;100.00;101968.41;5055943;28;20033;-69
2023/10/25 05:51:35;;;;;;;5.93;4.00;;;;;;;1.11;100.00;101980.06;5054927;28;20263;-70
2023/10/25 05:54:02;;;;;;;5.17;3.47;;;;;;;1.16;100.00;101980.72;5054536;28;20395;-69
2023/10/25 05:56:28;;;;;;;5.07;3.63;;;;;;;0.99;100.00;101957.06;5054052;28;20295;-71
2023/10/25 05:58:54;;;;;;;3.27;2.67;;;;;;;1.09;100.00;101989.78;5053976;28;20639;-69
2023/10/25 06:01:26;;;;;;;5.97;3.43;;;;;;;1.03;100.00;101979.59;5056026;28;20263;-71
2023/10/25 06:03:54;;;;;;;3.17;2.77;;;;;;;1.01;100.00;101970.94;5055271;28;20775;-68
2023/10/25 06:06:22;;;;;;;7.78;3.22;;;;;;;1.01;100.00;101956.06;5052138;28;20263;-71
2023/10/25 06:08:48;;;;;;;4.90;2.80;;;;;;;1.24;100.00;101987.31;5050899;28;20041;-71
2023/10/25 06:11:14;;;;;;;4.93;2.93;;;;;;;1.30;100.00;101998.44;5051805;28;20597;-70
2023/10/25 06:13:39;;;;;;;3.97;3.10;;;;;;;1.30;100.00;101999.28;5051600;28;20043;-69
2023/10/25 06:16:05;;;;;;;2.90;2.57;;;;;;;1.40;100.00;102003.16;5051903;28;20041;-70
2023/10/25 06:18:31;;;;;;;6.03;3.23;;;;;;;1.42;100.00;102006.56;5052362;28;20056;-68
2023/10/25 06:20:56;;;;;;;6.00;4.00;;;;;;;1.44;100.00;102006.50;5052981;28;20032;-71
2023/10/25 06:23:22;;;;;;;5.77;3.27;;;;;;;1.22;100.00;101983.91;5053295;28;20037;-73
2023/10/25 06:25:48;;;;;;;5.17;3.33;;;;;;;1.37;100.00;102016.44;5035312;28;20072;-71
2023/10/25 06:28:13;;;;;;;4.50;2.53;;;;;;;1.29;100.00;101992.34;5053340;28;20033;-70
2023/10/25 06:30:39;;;;;;;5.37;2.90;;;;;;;1.41;100.00;101996.97;5051883;28;20035;-70
2023/10/25 06:33:04;;;;;;;6.07;3.00;;;;;;;1.47;100.00;102011.63;5052950;28;20040;-67
2023/10/25 06:35:30;;;;;;;4.10;3.07;;;;;;;1.54;100.00;102015.66;5053440;28;20049;-69
2023/10/25 06:37:56;;;;;;;4.63;2.87;;;;;;;1.54;100.00;102008.63;5052198;28;20041;-70
2023/10/25 06:40:22;;;;;;;4.83;3.13;;;;;;;1.43;100.00;101984.63;5052176;28;20037;-70
2023/10/25 06:42:48;;;;;;;4.57;3.17;;;;;;;1.63;100.00;102001.22;5053254;28;20090;-67
2023/10/25 06:45:17;;;;;;;5.50;2.77;;;;;;;1.61;100.00;102008.31;5052109;28;20271;-70
2023/10/25 06:47:43;;;;;;;3.50;3.00;;;;;;;1.53;100.00;101996.41;5052820;28;20559;-71
2023/10/25 06:50:11;;;;;;;4.70;3.23;;;;;;;1.74;100.00;102014.69;5053132;28;20274;-68
2023/10/25 06:52:37;;;;;;;4.33;3.30;;;;;;;1.67;100.00;101992.25;5053206;28;20271;-69
2023/10/25 06:55:03;;;;;;;3.40;3.10;;;;;;;1.48;100.00;101945.91;5053382;28;20306;-70
2023/10/25 06:57:31;;;;;;;5.97;3.63;;;;;;;1.86;100.00;102008.81;5052226;28;20479;-70
2023/10/25 06:59:56;;;;;;;6.50;3.63;;;;;;;1.82;100.00;102008.13;5051354;28;20361;-68
2023/10/25 07:03:04;;;;;;;4.97;3.40;;;;;;;1.73;100.00;102019.06;5052278;28;20726;-69
2023/10/25 07:05:30;;;;;;;4.07;3.15;;;;;;;1.61;100.00;102013.56;5030954;28;20037;-71
2023/10/25 07:07:56;;;;;;;4.53;3.57;;;;;;;1.63;100.00;102016.97;5046359;28;20682;-69
2023/10/25 07:10:23;;;;;;;5.50;4.30;;;;;;;1.76;100.00;102016.31;5052279;28;20337;-72
2023/10/25 07:12:49;;;;;;;5.37;4.47;;;;;;;1.77;100.00;102009.28;5050880;28;20263;-69
2023/10/25 07:15:15;;;;;;;9.10;6.33;;;;;;;1.89;100.00;102013.06;5051962;28;20321;-69
2023/10/25 07:17:42;;;;;;;10.83;7.07;;;;;;;1.89;100.00;101992.03;5050548;28;20035;-73
2023/10/25 07:20:11;;;;;;;15.13;9.67;;;;;;;2.19;100.00;102024.66;5052131;28;20263;-70
2023/10/25 07:22:38;;;;;;;13.13;9.33;;;;;;;2.12;100.00;101997.00;5050410;28;20370;-70
2023/10/25 07:25:05;;;;;;;21.60;11.30;;;;;;;2.31;100.00;102010.03;5052110;28;20342;-72
2023/10/25 07:27:32;;;;;;;11.50;8.67;;;;;;;2.38;100.00;102016.69;5051288;28;20275;-71
2023/10/25 07:29:57;;;;;;;11.80;8.67;;;;;;;2.19;100.00;102001.00;5051994;28;20766;-70
2023/10/25 07:32:23;;;;;;;15.07;8.30;;;;;;;2.32;100.00;102027.53;5050607;28;20282;-71
2023/10/25 07:34:50;;;;;;;15.77;10.43;;;;;;;2.21;100.00;102020.16;5051849;28;20164;-70
2023/10/25 07:37:15;;;;;;;15.70;8.70;;;;;;;2.39;100.00;102024.50;5052127;28;20081;-72
2023/10/25 07:39:41;;;;;;;11.93;8.77;;;;;;;2.46;100.00;102027.66;5058116;28;20318;-70
2023/10/25 07:42:07;;;;;;;13.57;8.97;;;;;;;2.24;100.00;101985.00;5057905;28;20039;-69
2023/10/25 07:44:34;;;;;;;17.93;10.03;;;;;;;2.60;100.00;102027.78;5057305;28;20467;-69
2023/10/25 07:47:00;;;;;;;17.00;9.70;;;;;;;2.62;100.00;102036.44;5058166;28;20259;-68
2023/10/25 07:49:25;;;;;;;21.50;10.90;;;;;;;2.56;100.00;102023.59;5053700;28;20325;-68
2023/10/25 07:51:54;;;;;;;13.40;9.97;;;;;;;2.28;100.00;101986.53;5050483;28;20041;-67
2023/10/25 07:54:20;;;;;;;17.88;10.68;;;;;;;2.47;100.00;102038.09;5051584;28;20507;-69
2023/10/25 07:56:46;;;;;;;14.90;10.33;;;;;;;2.08;100.00;101972.66;5051884;28;20484;-66
2023/10/25 07:59:11;;;;;;;15.20;9.30;;;;;;;2.10;100.00;102002.34;5052056;28;20275;-68
2023/10/25 08:01:38;;;;;;;13.40;9.03;;;;;;;2.11;100.00;102022.44;5050966;28;20029;-69
2023/10/25 08:04:06;;;;;;;11.17;8.83;;;;;;;2.24;100.00;102029.66;5052210;28;20083;-74
2023/10/25 08:06:32;;;;;;;16.65;10.48;;;;;;;2.29;100.00;102015.34;5051450;28;20275;-69
2023/10/25 08:08:57;;;;;;;13.87;7.87;;;;;;;2.46;100.00;102004.84;5052025;28;20453;-74
2023/10/25 08:11:23;;;;;;;9.27;6.63;;;;;;;2.65;100.00;102011.78;5051857;28;20370;-68
2023/10/25 08:13:49;;;;;;;9.00;7.80;;;;;;;2.66;100.00;102001.16;5050826;28;20078;-72
2023/10/25 08:16:14;;;;;;;10.23;7.40;;;;;;;2.69;100.00;102000.16;5050735;28;20036;-69
2023/10/25 08:18:40;;;;;;;12.10;6.43;;;;;;;2.97;100.00;102025.84;5052279;28;20045;-70
2023/10/25 08:21:12;;;;;;;9.90;7.10;;;;;;;2.94;100.00;102008.44;5034175;28;20041;-70
2023/10/25 08:23:38;;;;;;;8.33;5.67;;;;;;;2.95;100.00;102022.44;5051954;28;20040;-67
2023/10/25 08:26:04;;;;;;;10.73;6.30;;;;;;;2.80;100.00;102001.25;5051050;28;20271;-70
2023/10/25 08:28:29;;;;;;;13.40;7.47;;;;;;;2.78;99.71;102016.28;5051750;28;20400;-72
2023/10/25 08:30:55;;;;;;;7.77;5.87;;;;;;;2.74;100.00;102038.44;5050410;28;20517;-71
2023/10/25 08:33:22;;;;;;;11.30;7.30;;;;;;;2.58;100.00;102000.69;5050230;28;20061;-73
2023/10/25 08:35:47;;;;;;;10.30;6.70;;;;;;;2.90;100.00;102030.59;5051532;28;20122;-69
2023/10/25 08:38:13;;;;;;;12.60;6.73;;;;;;;3.04;100.00;102021.94;5049893;28;20330;-70
2023/10/25 08:40:40;;;;;;;13.10;8.67;;;;;;;3.17;100.00;102022.94;5051145;28;20079;-68
2023/10/25 08:43:07;;;;;;;9.03;6.97;;;;;;;3.25;99.86;102014.66;5051540;28;20039;-68
2023/10/25 08:45:35;;;;;;;11.80;7.13;;;;;;;3.10;96.02;102005.78;5051035;28;20779;-72
2023/10/25 08:48:09;;;;;;;9.53;6.73;;;;;;;2.87;97.21;101987.78;5050980;28;20267;-72
2023/10/25 08:50:35;;;;;;;10.10;6.60;;;;;;;2.90;98.95;101999.00;5049795;28;20797;-70
2023/10/25 08:53:01;;;;;;;10.13;6.60;;;;;;;2.66;100.00;101947.72;5051580;28;20366;-71
2023/10/25 08:55:26;;;;;;;11.57;7.73;;;;;;;3.12;100.00;102017.09;5054420;28;20878;-71
2023/10/25 08:57:56;;;;;;;9.10;6.83;;;;;;;3.11;100.00;102029.41;5055173;28;20040;-69
2023/10/25 09:00:30;;;;;;;10.87;6.40;;;;;;;3.01;100.00;102014.19;5055255;28;20564;-69
2023/10/25 09:02:55;;;;;;;12.23;7.37;;;;;;;2.99;100.00;102002.91;5053853;28;20806;-69
2023/10/25 09:05:21;;;;;;;9.40;7.20;;;;;;;3.09;100.00;102020.75;5055168;28;20409;-70
2023/10/25 09:07:47;;;;;;;15.50;7.53;;;;;;;3.10;100.00;102014.53;5055520;28;20131;-70
2023/10/25 09:10:17;;;;;;;13.47;8.33;;;;;;;3.02;100.00;101986.94;5054126;28;20055;-69
2023/10/25 09:12:45;;;;;;;19.83;9.57;;;;;;;3.30;100.00;102018.72;5059168;28;20037;-69
2023/10/25 09:15:11;;;;;;;17.70;10.30;;;;;;;3.17;98.68;101975.56;5077303;28;20292;-68
2023/10/25 09:17:36;;;;;;;24.57;13.97;;;;;;;3.38;98.40;102005.97;5077946;28;20294;-70
2023/10/25 09:20:07;;;;;;;26.17;13.03;;;;;;;3.60;98.38;102015.28;5076700;28;20037;-70
2023/10/25 09:22:32;;;;;;;20.47;11.07;;;;;;;3.71;96.66;102012.88;5028398;28;20037;-69
2023/10/25 09:24:59;;;;;;;12.57;8.37;;;;;;;3.48;95.04;101989.66;5055506;28;20274;-70
2023/10/25 09:27:25;;;;;;;11.23;7.17;;;;;;;3.31;94.24;101962.50;5037512;28;20128;-66
2023/10/25 09:29:52;;;;;;;12.50;7.63;;;;;;;3.34;94.21;102009.72;5055354;28;20298;-68
2023/10/25 09:32:18;;;;;;;9.30;6.90;;;;;;;3.14;94.27;102022.25;5055537;28;20534;-70
2023/10/25 09:34:49;;;;;;;9.97;6.37;;;;;;;3.04;95.22;102019.28;5053562;28;20710;-69
2023/10/25 09:37:15;;;;;;;10.63;7.20;;;;;;;2.97;95.89;102010.03;5053192;28;20279;-68
2023/10/25 09:39:41;;;;;;;10.20;6.90;;;;;;;2.99;95.40;102018.69;5052917;28;20689;-69
2023/10/25 09:42:15;;;;;;;8.60;6.37;;;;;;;2.92;96.23;102001.56;5035767;28;20276;-70
2023/10/25 09:44:45;;;;;;;11.20;9.27;;;;;;;2.99;95.70;102008.16;5052532;28;20488;-67
2023/10/25 09:47:11;;;;;;;9.70;6.43;;;;;;;2.91;95.45;102002.50;5053350;28;20314;-67
2023/10/25 09:49:42;;;;;;;9.80;6.23;;;;;;;2.75;95.39;102000.66;5051443;28;20278;-71
2023/10/25 09:52:24;;;;;;;12.30;6.83;;;;;;;2.67;95.84;102007.28;5053530;28;20363;-71
2023/10/25 09:54:51;;;;;;;8.67;6.70;;;;;;;2.79;96.64;102011.88;5056566;28;20386;-70
2023/10/25 09:57:18;;;;;;;9.27;6.90;;;;;;;2.73;95.97;101997.25;5056407;28;20271;-68
2023/10/25 09:59:45;;;;;;;7.27;6.20;;;;;;;2.76;97.51;101994.47;5048982;28;20813;-67
2023/10/25 10:02:19;;;;;;;9.33;6.33;;;;;;;2.23;96.44;101907.06;5054226;28;20346;-71
2023/10/25 10:04:57;;;;;;;9.97;7.00;;;;;;;2.78;95.59;101992.59;5035758;28;20274;-71
2023/10/25 10:07:38;;;;;;;9.13;6.90;;;;;;;2.84;95.85;101999.31;5052636;28;20362;-72
2023/10/25 10:10:06;;;;;;;6.93;5.70;;;;;;;2.82;96.71;102002.97;5054221;28;20263;-72
2023/10/25 10:12:32;;;;;;;5.78;3.80;;;;;;;2.61;94.90;101991.81;5056114;28;20283;-73
2023/10/25 10:14:58;;;;;;;3.97;3.17;;;;;;;2.62;95.52;102010.16;5059802;28;20037;-71
2023/10/25 10:17:25;;;;;;;4.33;3.20;;;;;;;2.45;94.79;101989.13;5040717;28;20032;-70
2023/10/25 10:19:51;;;;;;;4.30;3.27;;;;;;;2.29;96.45;101994.34;5055078;28;20283;-74
2023/10/25 10:22:18;;;;;;;4.63;3.43;;;;;;;2.12;97.21;101982.06;5053728;28;20608;-70
2023/10/25 10:24:48;;;;;;;10.47;3.60;;;;;;;2.15;97.35;101999.47;5054832;28;20147;-71
2023/10/25 10:27:20;;;;;;;5.43;4.10;;;;;;;1.93;98.57;101994.44;5055497;28;20275;-70
2023/10/25 10:29:49;;;;;;;6.47;4.07;;;;;;;1.78;99.21;101980.31;5052552;28;20275;-72
2023/10/25 10:32:16;;;;;;;5.33;2.73;;;;;;;1.64;100.00;101977.50;5054439;28;20759;-69
2023/10/25 10:34:48;;;;;;;2.87;2.40;;;;;;;1.66;100.00;101991.41;5052822;28;20280;-69
2023/10/25 10:37:22;;;;;;;4.70;2.53;;;;;;;1.39;100.00;101979.63;5052832;28;20287;-69
2023/10/25 10:40:08;;;;;;;3.77;2.80;;;;;;;1.38;100.00;101986.63;5037189;28;20283;-70
2023/10/25 10:42:35;;;;;;;6.07;4.00;;;;;;;1.31;100.00;101987.88;5046816;28;20279;-75
2023/10/25 10:45:03;;;;;;;5.87;3.13;;;;;;;1.36;100.00;101985.00;5048404;28;20284;-68
2023/10/25 10:47:43;;;;;;;4.03;2.47;;;;;;;1.39;100.00;101977.84;5037535;28;20318;-70
2023/10/25 10:50:24;;;;;;;4.77;2.57;;;;;;;1.35;100.00;101963.16;5037935;28;20272;-68
2023/10/25 10:52:51;;;;;;;3.63;3.33;;;;;;;1.43;100.00;101984.63;5037571;28;20280;-68
2023/10/25 10:55:22;;;;;;;3.50;3.03;;;;;;;1.60;100.00;101993.47;5036758;28;20807;-73
2023/10/25 10:57:48;;;;;;;5.43;2.80;;;;;;;1.71;100.00;101993.78;5043846;28;20777;-74
2023/10/25 11:00:16;;;;;;;4.40;3.17;;;;;;;1.63;100.00;101956.56;5051171;28;20306;-69
2023/10/25 11:02:47;;;;;;;11.65;3.53;;;;;;;1.66;100.00;101956.41;5038354;28;20290;-70
2023/10/25 11:05:22;;;;;;;4.90;2.80;;;;;;;1.84;100.00;101987.88;5039320;28;20041;-71
2023/10/25 11:07:50;;;;;;;6.17;3.20;;;;;;;1.79;100.00;101974.13;5028059;28;20821;-70
2023/10/25 11:10:16;;;;;;;4.35;3.10;;;;;;;1.90;99.91;101980.59;5039936;28;20295;-69
2023/10/25 11:12:43;;;;;;;5.10;3.70;;;;;;;1.70;100.00;101937.78;5039000;28;20041;-69
2023/10/25 11:15:10;;;;;;;3.63;2.90;;;;;;;1.85;99.18;101944.06;5023421;28;20296;-68
2023/10/25 11:17:37;;;;;;;4.40;2.90;;;;;;;2.13;98.39;101969.78;5039047;28;20291;-68
2023/10/25 11:20:04;;;;;;;7.80;3.40;;;;;;;2.26;99.26;101973.47;5044193;28;20302;-67
2023/10/25 11:22:36;;;;;;;7.50;2.97;;;;;;;2.28;99.32;101952.34;5039704;28;20294;-70
2023/10/25 11:25:10;;;;;;;6.53;3.28;;;;;;;2.33;98.16;101945.09;5040379;28;20353;-70